sensor_id;sensor_type;location;lat;lon;timestamp;P1;durP1;ratioP1;P2;durP2;ratioP2
64598;SDS011;51008;51.504;11.548;2023-12-07T00:00:49;31.27;;;20.00;;
64598;SDS011;51008;51.504;11.548;2023-12-07T00:05:50;36.88;;;19.85;;
64598;SDS011;51008;51.504;11.548;2023-12-07T00:10:51;30.92;;;19.08;;
64598;SDS011;51008;51.504;11.548;2023-12-07T00:15:52;36.92;;;21.25;;
64598;SDS011;51008;51.504;11.548;2023-12-07T00:20:53;34.30;;;20.38;;
64598;SDS011;51008;51.504;11.548;2023-12-07T00:25:54;33.95;;;19.83;;
64598;SDS011;51008;51.504;11.548;2023-12-07T00:30:55;34.95;;;20.50;;
64598;SDS011;51008;51.504;11.548;2023-12-07T00:35:56;34.58;;;20.23;;
64598;SDS011;51008;51.504;11.548;2023-12-07T00:40:57;31.83;;;19.75;;
64598;SDS011;51008;51.504;11.548;2023-12-07T00:45:59;35.47;;;20.42;;
64598;SDS011;51008;51.504;11.548;2023-12-07T00:51:01;34.55;;;20.42;;
64598;SDS011;51008;51.504;11.548;2023-12-07T00:56:02;37.90;;;21.60;;
64598;SDS011;51008;51.504;11.548;2023-12-07T01:01:04;37.28;;;21.70;;
64598;SDS011;51008;51.504;11.548;2023-12-07T01:06:05;38.67;;;22.20;;
64598;SDS011;51008;51.504;11.548;2023-12-07T01:11:06;36.45;;;21.27;;
64598;SDS011;51008;51.504;11.548;2023-12-07T01:16:07;37.50;;;21.25;;
64598;SDS011;51008;51.504;11.548;2023-12-07T01:21:08;38.72;;;22.02;;
64598;SDS011;51008;51.504;11.548;2023-12-07T01:26:09;38.85;;;22.25;;
64598;SDS011;51008;51.504;11.548;2023-12-07T01:31:10;37.33;;;20.45;;
64598;SDS011;51008;51.504;11.548;2023-12-07T01:36:11;35.13;;;20.95;;
64598;SDS011;51008;51.504;11.548;2023-12-07T01:41:13;35.65;;;20.70;;
64598;SDS011;51008;51.504;11.548;2023-12-07T01:46:15;35.10;;;20.45;;
64598;SDS011;51008;51.504;11.548;2023-12-07T01:51:17;34.60;;;20.50;;
64598;SDS011;51008;51.504;11.548;2023-12-07T01:56:20;38.10;;;21.25;;
64598;SDS011;51008;51.504;11.548;2023-12-07T02:01:24;36.28;;;21.25;;
64598;SDS011;51008;51.504;11.548;2023-12-07T02:06:25;36.92;;;20.42;;
64598;SDS011;51008;51.504;11.548;2023-12-07T02:11:27;40.58;;;20.90;;
64598;SDS011;51008;51.504;11.548;2023-12-07T02:21:46;35.97;;;20.65;;
64598;SDS011;51008;51.504;11.548;2023-12-07T02:26:51;33.42;;;19.40;;
64598;SDS011;51008;51.504;11.548;2023-12-07T02:31:52;34.72;;;19.88;;
64598;SDS011;51008;51.504;11.548;2023-12-07T02:36:53;34.90;;;20.50;;
64598;SDS011;51008;51.504;11.548;2023-12-07T02:41:59;32.30;;;18.98;;
64598;SDS011;51008;51.504;11.548;2023-12-07T02:47:01;30.63;;;18.35;;
64598;SDS011;51008;51.504;11.548;2023-12-07T02:52:02;35.25;;;19.27;;
64598;SDS011;51008;51.504;11.548;2023-12-07T02:57:03;32.63;;;19.58;;
64598;SDS011;51008;51.504;11.548;2023-12-07T03:02:04;33.78;;;18.52;;
64598;SDS011;51008;51.504;11.548;2023-12-07T03:07:06;36.28;;;20.02;;
64598;SDS011;51008;51.504;11.548;2023-12-07T03:12:06;32.88;;;20.20;;
64598;SDS011;51008;51.504;11.548;2023-12-07T03:17:07;34.55;;;20.05;;
64598;SDS011;51008;51.504;11.548;2023-12-07T03:22:08;35.22;;;19.42;;
64598;SDS011;51008;51.504;11.548;2023-12-07T03:27:10;34.80;;;19.50;;
64598;SDS011;51008;51.504;11.548;2023-12-07T03:32:11;38.55;;;20.67;;
64598;SDS011;51008;51.504;11.548;2023-12-07T03:37:12;37.80;;;20.90;;
64598;SDS011;51008;51.504;11.548;2023-12-07T03:42:13;40.08;;;20.95;;
64598;SDS011;51008;51.504;11.548;2023-12-07T03:47:14;38.95;;;20.75;;
64598;SDS011;51008;51.504;11.548;2023-12-07T03:52:34;43.08;;;22.05;;
64598;SDS011;51008;51.504;11.548;2023-12-07T03:57:35;40.42;;;22.25;;
64598;SDS011;51008;51.504;11.548;2023-12-07T04:02:36;43.03;;;22.17;;
64598;SDS011;51008;51.504;11.548;2023-12-07T04:07:37;42.42;;;23.25;;
64598;SDS011;51008;51.504;11.548;2023-12-07T04:12:38;40.05;;;21.85;;
64598;SDS011;51008;51.504;11.548;2023-12-07T04:17:39;44.67;;;22.25;;
64598;SDS011;51008;51.504;11.548;2023-12-07T04:22:41;38.15;;;20.75;;
64598;SDS011;51008;51.504;11.548;2023-12-07T04:27:42;44.35;;;22.80;;
64598;SDS011;51008;51.504;11.548;2023-12-07T04:32:43;42.65;;;23.77;;
64598;SDS011;51008;51.504;11.548;2023-12-07T04:37:44;46.13;;;23.10;;
64598;SDS011;51008;51.504;11.548;2023-12-07T04:42:45;41.17;;;21.95;;
64598;SDS011;51008;51.504;11.548;2023-12-07T04:48:05;39.95;;;22.83;;
64598;SDS011;51008;51.504;11.548;2023-12-07T04:53:06;43.42;;;22.83;;
64598;SDS011;51008;51.504;11.548;2023-12-07T04:58:07;39.88;;;21.15;;
64598;SDS011;51008;51.504;11.548;2023-12-07T05:03:08;44.00;;;23.65;;
64598;SDS011;51008;51.504;11.548;2023-12-07T05:08:09;43.08;;;22.33;;
64598;SDS011;51008;51.504;11.548;2023-12-07T05:13:10;37.45;;;19.38;;
64598;SDS011;51008;51.504;11.548;2023-12-07T05:18:12;41.05;;;22.35;;
64598;SDS011;51008;51.504;11.548;2023-12-07T05:23:13;37.10;;;20.10;;
64598;SDS011;51008;51.504;11.548;2023-12-07T05:28:14;42.47;;;22.33;;
64598;SDS011;51008;51.504;11.548;2023-12-07T05:33:15;44.03;;;22.25;;
64598;SDS011;51008;51.504;11.548;2023-12-07T05:38:16;39.45;;;21.25;;
64598;SDS011;51008;51.504;11.548;2023-12-07T05:43:17;40.20;;;21.27;;
64598;SDS011;51008;51.504;11.548;2023-12-07T05:48:18;38.83;;;21.13;;
64598;SDS011;51008;51.504;11.548;2023-12-07T05:53:19;40.95;;;21.60;;
64598;SDS011;51008;51.504;11.548;2023-12-07T05:58:20;40.17;;;20.83;;
64598;SDS011;51008;51.504;11.548;2023-12-07T06:03:21;43.05;;;21.52;;
64598;SDS011;51008;51.504;11.548;2023-12-07T06:08:22;39.22;;;20.90;;
64598;SDS011;51008;51.504;11.548;2023-12-07T06:13:24;40.53;;;21.02;;
64598;SDS011;51008;51.504;11.548;2023-12-07T06:18:27;41.05;;;21.35;;
64598;SDS011;51008;51.504;11.548;2023-12-07T06:23:32;40.05;;;20.17;;
64598;SDS011;51008;51.504;11.548;2023-12-07T06:28:33;45.47;;;21.30;;
64598;SDS011;51008;51.504;11.548;2023-12-07T06:33:36;39.90;;;21.70;;
64598;SDS011;51008;51.504;11.548;2023-12-07T06:38:38;39.75;;;20.95;;
64598;SDS011;51008;51.504;11.548;2023-12-07T06:43:39;39.70;;;20.95;;
64598;SDS011;51008;51.504;11.548;2023-12-07T06:48:40;42.05;;;19.88;;
64598;SDS011;51008;51.504;11.548;2023-12-07T06:53:41;40.72;;;20.85;;
64598;SDS011;51008;51.504;11.548;2023-12-07T06:58:42;37.28;;;20.15;;
64598;SDS011;51008;51.504;11.548;2023-12-07T07:03:43;33.97;;;19.38;;
64598;SDS011;51008;51.504;11.548;2023-12-07T07:08:44;37.13;;;19.52;;
64598;SDS011;51008;51.504;11.548;2023-12-07T07:13:45;40.92;;;20.10;;
64598;SDS011;51008;51.504;11.548;2023-12-07T07:18:46;42.03;;;21.05;;
64598;SDS011;51008;51.504;11.548;2023-12-07T07:23:47;38.45;;;19.63;;
64598;SDS011;51008;51.504;11.548;2023-12-07T07:28:48;39.75;;;20.20;;
64598;SDS011;51008;51.504;11.548;2023-12-07T07:33:49;36.60;;;20.77;;
64598;SDS011;51008;51.504;11.548;2023-12-07T07:38:50;35.58;;;19.83;;
64598;SDS011;51008;51.504;11.548;2023-12-07T07:43:51;41.20;;;21.95;;
64598;SDS011;51008;51.504;11.548;2023-12-07T07:48:52;38.35;;;20.98;;
64598;SDS011;51008;51.504;11.548;2023-12-07T07:53:53;39.03;;;20.70;;
64598;SDS011;51008;51.504;11.548;2023-12-07T07:58:54;42.25;;;22.20;;
64598;SDS011;51008;51.504;11.548;2023-12-07T08:03:55;44.35;;;20.35;;
64598;SDS011;51008;51.504;11.548;2023-12-07T08:08:56;35.63;;;19.60;;
64598;SDS011;51008;51.504;11.548;2023-12-07T08:13:57;43.75;;;20.40;;
64598;SDS011;51008;51.504;11.548;2023-12-07T08:18:58;35.75;;;20.10;;
64598;SDS011;51008;51.504;11.548;2023-12-07T08:23:59;34.70;;;19.58;;
64598;SDS011;51008;51.504;11.548;2023-12-07T08:29:00;40.25;;;20.08;;
64598;SDS011;51008;51.504;11.548;2023-12-07T08:34:01;38.28;;;20.90;;
64598;SDS011;51008;51.504;11.548;2023-12-07T08:39:02;40.97;;;20.83;;
64598;SDS011;51008;51.504;11.548;2023-12-07T08:44:04;40.10;;;20.20;;
64598;SDS011;51008;51.504;11.548;2023-12-07T08:49:05;40.80;;;22.08;;
64598;SDS011;51008;51.504;11.548;2023-12-07T08:54:06;36.33;;;19.50;;
64598;SDS011;51008;51.504;11.548;2023-12-07T08:59:07;35.20;;;19.85;;
64598;SDS011;51008;51.504;11.548;2023-12-07T09:04:08;41.28;;;20.23;;
64598;SDS011;51008;51.504;11.548;2023-12-07T09:09:09;40.45;;;22.05;;
64598;SDS011;51008;51.504;11.548;2023-12-07T09:14:10;41.60;;;21.52;;
64598;SDS011;51008;51.504;11.548;2023-12-07T09:19:14;39.88;;;21.10;;
64598;SDS011;51008;51.504;11.548;2023-12-07T09:24:15;41.85;;;21.58;;
64598;SDS011;51008;51.504;11.548;2023-12-07T09:29:16;39.25;;;20.90;;
64598;SDS011;51008;51.504;11.548;2023-12-07T09:34:17;38.53;;;20.85;;
64598;SDS011;51008;51.504;11.548;2023-12-07T09:39:18;41.17;;;20.38;;
64598;SDS011;51008;51.504;11.548;2023-12-07T09:44:19;35.05;;;20.52;;
64598;SDS011;51008;51.504;11.548;2023-12-07T09:49:21;39.30;;;20.42;;
64598;SDS011;51008;51.504;11.548;2023-12-07T09:54:22;37.97;;;19.55;;
64598;SDS011;51008;51.504;11.548;2023-12-07T09:59:25;36.13;;;19.85;;
64598;SDS011;51008;51.504;11.548;2023-12-07T10:04:26;39.10;;;20.70;;
64598;SDS011;51008;51.504;11.548;2023-12-07T10:09:27;31.73;;;18.48;;
64598;SDS011;51008;51.504;11.548;2023-12-07T10:14:28;34.50;;;18.98;;
64598;SDS011;51008;51.504;11.548;2023-12-07T10:19:29;32.90;;;18.83;;
64598;SDS011;51008;51.504;11.548;2023-12-07T10:24:30;38.17;;;20.17;;
64598;SDS011;51008;51.504;11.548;2023-12-07T10:29:34;32.03;;;17.83;;
64598;SDS011;51008;51.504;11.548;2023-12-07T10:39:37;33.65;;;18.67;;
64598;SDS011;51008;51.504;11.548;2023-12-07T10:44:42;33.00;;;18.60;;
64598;SDS011;51008;51.504;11.548;2023-12-07T10:49:43;36.17;;;20.05;;
64598;SDS011;51008;51.504;11.548;2023-12-07T11:00:04;33.00;;;19.48;;
64598;SDS011;51008;51.504;11.548;2023-12-07T11:05:07;37.70;;;20.38;;
64598;SDS011;51008;51.504;11.548;2023-12-07T11:10:15;45.03;;;21.23;;
64598;SDS011;51008;51.504;11.548;2023-12-07T11:15:22;35.08;;;19.38;;
64598;SDS011;51008;51.504;11.548;2023-12-07T11:20:42;37.72;;;20.60;;
64598;SDS011;51008;51.504;11.548;2023-12-07T11:25:45;38.28;;;18.85;;
64598;SDS011;51008;51.504;11.548;2023-12-07T11:30:47;36.53;;;20.65;;
64598;SDS011;51008;51.504;11.548;2023-12-07T11:41:09;36.40;;;20.33;;
64598;SDS011;51008;51.504;11.548;2023-12-07T11:46:11;32.55;;;18.38;;
64598;SDS011;51008;51.504;11.548;2023-12-07T11:51:12;36.05;;;20.50;;
64598;SDS011;51008;51.504;11.548;2023-12-07T11:56:13;37.67;;;19.75;;
64598;SDS011;51008;51.504;11.548;2023-12-07T12:01:14;35.83;;;19.17;;
64598;SDS011;51008;51.504;11.548;2023-12-07T12:06:17;33.42;;;18.42;;
64598;SDS011;51008;51.504;11.548;2023-12-07T12:11:18;39.70;;;17.17;;
64598;SDS011;51008;51.504;11.548;2023-12-07T12:16:19;29.10;;;16.80;;
64598;SDS011;51008;51.504;11.548;2023-12-07T12:21:20;24.83;;;14.85;;
64598;SDS011;51008;51.504;11.548;2023-12-07T12:26:21;23.40;;;14.32;;
64598;SDS011;51008;51.504;11.548;2023-12-07T12:31:22;22.55;;;13.68;;
64598;SDS011;51008;51.504;11.548;2023-12-07T12:36:23;22.98;;;13.65;;
64598;SDS011;51008;51.504;11.548;2023-12-07T12:41:24;18.42;;;11.48;;
64598;SDS011;51008;51.504;11.548;2023-12-07T12:46:25;19.45;;;12.13;;
64598;SDS011;51008;51.504;11.548;2023-12-07T12:51:45;31.75;;;15.25;;
64598;SDS011;51008;51.504;11.548;2023-12-07T12:56:49;26.80;;;16.58;;
64598;SDS011;51008;51.504;11.548;2023-12-07T13:02:09;29.15;;;14.05;;
64598;SDS011;51008;51.504;11.548;2023-12-07T13:07:11;22.90;;;12.88;;
64598;SDS011;51008;51.504;11.548;2023-12-07T13:12:13;23.88;;;14.00;;
64598;SDS011;51008;51.504;11.548;2023-12-07T13:17:14;23.73;;;13.25;;
64598;SDS011;51008;51.504;11.548;2023-12-07T13:22:15;20.77;;;12.95;;
64598;SDS011;51008;51.504;11.548;2023-12-07T13:27:16;21.88;;;13.30;;
64598;SDS011;51008;51.504;11.548;2023-12-07T13:32:17;23.20;;;13.40;;
64598;SDS011;51008;51.504;11.548;2023-12-07T13:37:18;23.17;;;13.27;;
64598;SDS011;51008;51.504;11.548;2023-12-07T13:42:19;20.67;;;12.95;;
64598;SDS011;51008;51.504;11.548;2023-12-07T13:47:20;20.92;;;12.25;;
64598;SDS011;51008;51.504;11.548;2023-12-07T13:52:21;26.15;;;14.32;;
64598;SDS011;51008;51.504;11.548;2023-12-07T13:57:22;23.17;;;13.40;;
64598;SDS011;51008;51.504;11.548;2023-12-07T14:02:24;21.55;;;13.20;;
64598;SDS011;51008;51.504;11.548;2023-12-07T14:07:25;25.08;;;13.98;;
64598;SDS011;51008;51.504;11.548;2023-12-07T14:12:26;28.10;;;14.25;;
64598;SDS011;51008;51.504;11.548;2023-12-07T14:17:27;23.60;;;13.77;;
64598;SDS011;51008;51.504;11.548;2023-12-07T14:22:29;28.98;;;14.68;;
64598;SDS011;51008;51.504;11.548;2023-12-07T14:27:33;27.27;;;15.18;;
64598;SDS011;51008;51.504;11.548;2023-12-07T14:32:34;29.83;;;16.45;;
64598;SDS011;51008;51.504;11.548;2023-12-07T14:37:35;30.15;;;15.63;;
64598;SDS011;51008;51.504;11.548;2023-12-07T14:42:36;32.05;;;16.67;;
64598;SDS011;51008;51.504;11.548;2023-12-07T14:47:37;29.33;;;15.95;;
64598;SDS011;51008;51.504;11.548;2023-12-07T14:52:38;28.30;;;15.43;;
64598;SDS011;51008;51.504;11.548;2023-12-07T14:57:39;25.60;;;15.18;;
64598;SDS011;51008;51.504;11.548;2023-12-07T15:02:40;30.02;;;15.40;;
64598;SDS011;51008;51.504;11.548;2023-12-07T15:07:41;30.10;;;15.63;;
64598;SDS011;51008;51.504;11.548;2023-12-07T15:12:42;27.73;;;15.75;;
64598;SDS011;51008;51.504;11.548;2023-12-07T15:17:43;25.98;;;15.45;;
64598;SDS011;51008;51.504;11.548;2023-12-07T15:22:44;27.15;;;15.13;;
64598;SDS011;51008;51.504;11.548;2023-12-07T15:27:45;26.67;;;15.65;;
64598;SDS011;51008;51.504;11.548;2023-12-07T15:32:46;26.17;;;13.95;;
64598;SDS011;51008;51.504;11.548;2023-12-07T15:37:47;22.52;;;13.02;;
64598;SDS011;51008;51.504;11.548;2023-12-07T15:42:48;25.85;;;14.38;;
64598;SDS011;51008;51.504;11.548;2023-12-07T15:47:49;27.13;;;14.98;;
64598;SDS011;51008;51.504;11.548;2023-12-07T15:52:50;25.52;;;14.20;;
64598;SDS011;51008;51.504;11.548;2023-12-07T15:57:52;24.83;;;12.98;;
64598;SDS011;51008;51.504;11.548;2023-12-07T16:02:53;22.75;;;12.68;;
64598;SDS011;51008;51.504;11.548;2023-12-07T16:07:54;25.25;;;13.95;;
64598;SDS011;51008;51.504;11.548;2023-12-07T16:12:55;20.98;;;11.70;;
64598;SDS011;51008;51.504;11.548;2023-12-07T16:17:56;25.17;;;13.52;;
64598;SDS011;51008;51.504;11.548;2023-12-07T16:22:57;22.42;;;13.13;;
64598;SDS011;51008;51.504;11.548;2023-12-07T16:27:58;20.70;;;12.23;;
64598;SDS011;51008;51.504;11.548;2023-12-07T16:32:59;21.48;;;12.05;;
64598;SDS011;51008;51.504;11.548;2023-12-07T16:38:00;23.45;;;13.55;;
64598;SDS011;51008;51.504;11.548;2023-12-07T16:43:01;23.00;;;12.98;;
64598;SDS011;51008;51.504;11.548;2023-12-07T16:48:02;21.38;;;12.35;;
64598;SDS011;51008;51.504;11.548;2023-12-07T16:53:03;19.90;;;11.43;;
64598;SDS011;51008;51.504;11.548;2023-12-07T16:58:04;19.00;;;11.13;;
64598;SDS011;51008;51.504;11.548;2023-12-07T17:03:05;26.90;;;15.43;;
64598;SDS011;51008;51.504;11.548;2023-12-07T17:08:06;26.38;;;15.00;;
64598;SDS011;51008;51.504;11.548;2023-12-07T17:13:07;33.75;;;16.23;;
64598;SDS011;51008;51.504;11.548;2023-12-07T17:18:09;25.20;;;13.82;;
64598;SDS011;51008;51.504;11.548;2023-12-07T17:23:10;27.52;;;14.05;;
64598;SDS011;51008;51.504;11.548;2023-12-07T17:28:11;22.85;;;13.32;;
64598;SDS011;51008;51.504;11.548;2023-12-07T17:33:12;25.80;;;12.90;;
64598;SDS011;51008;51.504;11.548;2023-12-07T17:38:13;20.30;;;11.10;;
64598;SDS011;51008;51.504;11.548;2023-12-07T17:43:14;22.08;;;12.00;;
64598;SDS011;51008;51.504;11.548;2023-12-07T17:48:15;22.80;;;11.30;;
64598;SDS011;51008;51.504;11.548;2023-12-07T17:53:17;19.25;;;11.02;;
64598;SDS011;51008;51.504;11.548;2023-12-07T17:58:17;19.13;;;11.00;;
64598;SDS011;51008;51.504;11.548;2023-12-07T18:03:19;21.15;;;11.43;;
64598;SDS011;51008;51.504;11.548;2023-12-07T18:08:20;20.92;;;11.55;;
64598;SDS011;51008;51.504;11.548;2023-12-07T18:13:21;19.60;;;11.23;;
64598;SDS011;51008;51.504;11.548;2023-12-07T18:18:22;21.17;;;12.43;;
64598;SDS011;51008;51.504;11.548;2023-12-07T18:23:23;21.90;;;12.07;;
64598;SDS011;51008;51.504;11.548;2023-12-07T18:28:24;21.35;;;11.50;;
64598;SDS011;51008;51.504;11.548;2023-12-07T18:33:25;21.17;;;11.82;;
64598;SDS011;51008;51.504;11.548;2023-12-07T18:38:26;23.42;;;12.15;;
64598;SDS011;51008;51.504;11.548;2023-12-07T18:43:27;21.13;;;12.10;;
64598;SDS011;51008;51.504;11.548;2023-12-07T18:48:28;22.90;;;12.30;;
64598;SDS011;51008;51.504;11.548;2023-12-07T18:53:29;26.67;;;14.48;;
64598;SDS011;51008;51.504;11.548;2023-12-07T18:58:30;27.17;;;13.45;;
64598;SDS011;51008;51.504;11.548;2023-12-07T19:03:31;25.42;;;13.00;;
64598;SDS011;51008;51.504;11.548;2023-12-07T19:08:32;25.35;;;13.25;;
64598;SDS011;51008;51.504;11.548;2023-12-07T19:13:33;26.17;;;12.15;;
64598;SDS011;51008;51.504;11.548;2023-12-07T19:18:53;23.58;;;12.93;;
64598;SDS011;51008;51.504;11.548;2023-12-07T19:24:00;28.00;;;14.90;;
64598;SDS011;51008;51.504;11.548;2023-12-07T19:29:19;29.65;;;14.23;;
64598;SDS011;51008;51.504;11.548;2023-12-07T19:34:26;31.40;;;15.60;;
64598;SDS011;51008;51.504;11.548;2023-12-07T19:39:46;30.25;;;15.85;;
64598;SDS011;51008;51.504;11.548;2023-12-07T19:44:53;30.38;;;16.30;;
64598;SDS011;51008;51.504;11.548;2023-12-07T19:49:54;34.20;;;16.50;;
64598;SDS011;51008;51.504;11.548;2023-12-07T19:54:56;31.55;;;16.85;;
64598;SDS011;51008;51.504;11.548;2023-12-07T20:00:15;32.75;;;15.68;;
64598;SDS011;51008;51.504;11.548;2023-12-07T20:05:23;27.92;;;15.05;;
64598;SDS011;51008;51.504;11.548;2023-12-07T20:10:24;27.02;;;14.95;;
64598;SDS011;51008;51.504;11.548;2023-12-07T20:15:25;31.05;;;14.90;;
64598;SDS011;51008;51.504;11.548;2023-12-07T20:20:26;28.48;;;14.52;;
64598;SDS011;51008;51.504;11.548;2023-12-07T20:25:27;26.65;;;14.05;;
64598;SDS011;51008;51.504;11.548;2023-12-07T20:30:28;25.90;;;14.65;;
64598;SDS011;51008;51.504;11.548;2023-12-07T20:35:29;28.17;;;13.63;;
64598;SDS011;51008;51.504;11.548;2023-12-07T20:40:30;21.98;;;12.40;;
64598;SDS011;51008;51.504;11.548;2023-12-07T20:45:31;23.77;;;13.20;;
64598;SDS011;51008;51.504;11.548;2023-12-07T20:50:32;23.63;;;12.90;;
64598;SDS011;51008;51.504;11.548;2023-12-07T20:55:33;25.27;;;13.18;;
64598;SDS011;51008;51.504;11.548;2023-12-07T21:00:34;22.13;;;12.38;;
64598;SDS011;51008;51.504;11.548;2023-12-07T21:05:35;25.30;;;13.85;;
64598;SDS011;51008;51.504;11.548;2023-12-07T21:10:36;25.92;;;13.85;;
64598;SDS011;51008;51.504;11.548;2023-12-07T21:15:37;28.05;;;14.27;;
64598;SDS011;51008;51.504;11.548;2023-12-07T21:20:39;26.92;;;13.93;;
64598;SDS011;51008;51.504;11.548;2023-12-07T21:25:40;28.35;;;13.55;;
64598;SDS011;51008;51.504;11.548;2023-12-07T21:30:41;24.30;;;13.38;;
64598;SDS011;51008;51.504;11.548;2023-12-07T21:35:42;23.83;;;13.38;;
64598;SDS011;51008;51.504;11.548;2023-12-07T21:40:43;27.73;;;14.05;;
64598;SDS011;51008;51.504;11.548;2023-12-07T21:45:44;28.40;;;14.88;;
64598;SDS011;51008;51.504;11.548;2023-12-07T21:50:45;24.95;;;13.90;;
64598;SDS011;51008;51.504;11.548;2023-12-07T21:55:46;23.42;;;13.50;;
64598;SDS011;51008;51.504;11.548;2023-12-07T22:00:47;23.58;;;13.05;;
64598;SDS011;51008;51.504;11.548;2023-12-07T22:06:08;23.35;;;13.70;;
64598;SDS011;51008;51.504;11.548;2023-12-07T22:11:10;27.00;;;14.30;;
64598;SDS011;51008;51.504;11.548;2023-12-07T22:16:10;27.40;;;13.63;;
64598;SDS011;51008;51.504;11.548;2023-12-07T22:21:12;28.17;;;14.27;;
64598;SDS011;51008;51.504;11.548;2023-12-07T22:26:13;25.85;;;13.82;;
64598;SDS011;51008;51.504;11.548;2023-12-07T22:31:14;28.48;;;14.70;;
64598;SDS011;51008;51.504;11.548;2023-12-07T22:36:15;28.88;;;14.55;;
64598;SDS011;51008;51.504;11.548;2023-12-07T22:41:16;23.70;;;14.07;;
64598;SDS011;51008;51.504;11.548;2023-12-07T22:46:17;26.95;;;14.95;;
64598;SDS011;51008;51.504;11.548;2023-12-07T22:51:18;28.50;;;15.65;;
64598;SDS011;51008;51.504;11.548;2023-12-07T22:56:19;29.02;;;15.85;;
64598;SDS011;51008;51.504;11.548;2023-12-07T23:01:20;28.15;;;15.10;;
64598;SDS011;51008;51.504;11.548;2023-12-07T23:06:21;27.08;;;14.98;;
64598;SDS011;51008;51.504;11.548;2023-12-07T23:11:22;26.85;;;14.85;;
64598;SDS011;51008;51.504;11.548;2023-12-07T23:16:23;25.88;;;14.60;;
64598;SDS011;51008;51.504;11.548;2023-12-07T23:21:24;27.13;;;14.23;;
64598;SDS011;51008;51.504;11.548;2023-12-07T23:26:25;26.15;;;13.82;;
64598;SDS011;51008;51.504;11.548;2023-12-07T23:31:26;28.00;;;13.75;;
64598;SDS011;51008;51.504;11.548;2023-12-07T23:36:27;26.23;;;14.40;;
64598;SDS011;51008;51.504;11.548;2023-12-07T23:41:28;25.90;;;14.95;;
64598;SDS011;51008;51.504;11.548;2023-12-07T23:46:29;23.63;;;12.52;;
64598;SDS011;51008;51.504;11.548;2023-12-07T23:51:30;19.75;;;10.85;;
64598;SDS011;51008;51.504;11.548;2023-12-07T23:56:31;17.30;;;10.23;;
